Sucre, Bolivia
Current Conditions -  °F | °C
As of 7:00 PM on Monday 20 Oct 2014 (Local Time) from SLSU Reporting Station
Broken Clouds Broken Clouds  
Wind Chill: 52°   Ceiling: 7000
Heat Index: 52°   Visibility: 6mi
Dew Point: 50°   Wind: 5mph
Humidity: 94%   Direction: 30°NNE
Pressure: 30.42"   Gusts: NA
Location:  19.06°S, 65.26°W
Report Text: SLSU 202300Z 03004KT 9999 SCT007 BKN070 BKN200 11/10 Q1030
Loading
Personal Weather Stations






























Interactive Weather Map
Tropical Storm Tracking
New forecast layout! Learn more

10-Day Weather Forecast

Advertisements
Track Severe Weather on mobile